Pen Mar, Pennsylvania
Current Conditions -  °F | °C
As of 10:40 PM on Monday 22 Dec 2014 (Local Time) from KRYT Reporting Station
Haze Haze  
Wind Chill: -1°   Ceiling: 700
Heat Index:   Visibility: 1.5mi
Dew Point:   Wind: 5mph
Humidity: 93%   Direction: 100°E
Pressure: 30.08"   Gusts: NA
Location:  39.7777°N, 77.5693°W
Report Text: KRYT 230340Z AUTO 10004KT 1 1/2SM BR OVC007 01/00 A3008 RMK AO2 CIG 003V011 $
Loading
Personal Weather Stations






























Interactive Weather Map New forecast layout! Learn more

10-Day Weather Forecast

Advertisements
Track Severe Weather on mobile